Time;durP1;ratioP1;P1;durP2;ratioP2;P2;SDS_P1;SDS_P2;PMS_P1;PMS_P2;Temp;Humidity;BMP_temperature;BMP_pressure;BME280_temperature;BME280_humidity;BME280_pressure;Samples;Min_cycle;Max_cycle;Signal;HPM_P1;HPM_P2
2022/05/29 00:01:48;;;;;;;17.37;3.57;;;10.30;8.90;;;;;;5055631;28;20180;-68
2022/05/29 00:04:14;;;;;;;7.57;3.17;;;10.40;9.20;;;;;;5055089;28;20228;-69
2022/05/29 00:06:42;;;;;;;7.60;3.20;;;10.40;8.20;;;;;;5055888;28;20177;-68
2022/05/29 00:09:11;;;;;;;9.27;3.00;;;10.40;10.20;;;;;;5055682;28;20225;-69
2022/05/29 00:11:37;;;;;;;8.20;3.33;;;10.40;11.00;;;;;;5055536;28;20184;-69
2022/05/29 00:14:03;;;;;;;7.93;3.27;;;10.40;12.50;;;;;;5055529;28;20256;-68
2022/05/29 00:16:30;;;;;;;13.57;2.80;;;10.50;12.30;;;;;;5055524;28;20275;-68
2022/05/29 00:18:56;;;;;;;8.97;2.93;;;10.60;12.80;;;;;;5054833;28;20231;-68
2022/05/29 00:21:22;;;;;;;8.03;2.93;;;10.70;7.70;;;;;;5055559;28;20181;-68
2022/05/29 00:23:49;;;;;;;7.67;2.77;;;10.90;3.10;;;;;;5055693;28;20220;-68
2022/05/29 00:26:17;;;;;;;10.47;3.13;;;10.90;1.00;;;;;;5055374;28;20196;-68
2022/05/29 00:28:43;;;;;;;11.60;3.03;;;11.00;1.00;;;;;;5055214;28;20169;-67
2022/05/29 00:31:09;;;;;;;8.53;3.07;;;11.00;1.00;;;;;;5055379;28;20196;-67
2022/05/29 00:33:35;;;;;;;9.53;2.67;;;11.00;1.00;;;;;;5054678;28;20173;-67
2022/05/29 00:36:01;;;;;;;10.00;2.80;;;11.00;1.00;;;;;;5055169;28;20184;-67
2022/05/29 00:38:28;;;;;;;9.13;3.03;;;11.10;1.00;;;;;;5055100;28;20177;-68
2022/05/29 00:41:17;;;;;;;13.33;2.70;;;11.00;1.00;;;;;;5055126;28;20256;-67
2022/05/29 00:44:04;;;;;;;12.07;2.90;;;11.00;1.00;;;;;;5054912;28;20216;-68
2022/05/29 00:46:30;;;;;;;7.30;2.70;;;11.00;1.00;;;;;;5054839;28;20173;-67
2022/05/29 00:48:56;;;;;;;5.07;2.43;;;11.10;1.00;;;;;;5054914;28;20177;-68
2022/05/29 00:51:23;;;;;;;7.93;2.70;;;11.20;1.00;;;;;;5054850;28;20173;-67
2022/05/29 00:53:49;;;;;;;9.37;2.87;;;11.20;1.00;;;;;;5054851;28;20612;-67
2022/05/29 00:56:15;;;;;;;6.53;2.70;;;11.30;1.00;;;;;;5054575;28;20173;-68
2022/05/29 00:58:43;;;;;;;5.77;2.67;;;11.20;1.00;;;;;;5054454;28;20637;-67
2022/05/29 01:01:09;;;;;;;6.57;2.40;;;11.30;1.00;;;;;;5054310;28;20181;-67
2022/05/29 01:03:34;;;;;;;5.73;2.57;;;11.30;1.00;;;;;;5054659;28;20566;-67
2022/05/29 01:06:00;;;;;;;8.23;2.53;;;11.30;1.00;;;;;;5054385;28;20226;-68
2022/05/29 01:08:32;;;;;;;8.30;3.00;;;11.30;1.00;;;;;;5053953;28;20681;-67
2022/05/29 01:11:17;;;;;;;6.83;2.40;;;11.30;1.00;;;;;;5054572;28;20205;-66
2022/05/29 01:13:55;;;;;;;6.30;2.70;;;11.30;1.00;;;;;;5054395;28;20169;-68
2022/05/29 01:16:32;;;;;;;5.43;2.63;;;11.20;1.00;;;;;;5054189;28;20180;-68
2022/05/29 01:19:10;;;;;;;7.57;2.87;;;11.30;1.00;;;;;;5054472;28;20168;-68
2022/05/29 01:22:12;;;;;;;8.33;2.63;;;11.30;1.00;;;;;;5054186;28;20180;-68
2022/05/29 01:25:14;;;;;;;9.30;2.87;;;11.30;1.00;;;;;;5054358;28;20176;-68
2022/05/29 01:28:17;;;;;;;8.43;2.93;;;11.30;1.00;;;;;;5054115;28;20161;-67
2022/05/29 01:31:09;;;;;;;13.70;2.90;;;11.30;1.00;;;;;;5054169;28;20169;-67
2022/05/29 01:33:51;;;;;;;9.73;2.47;;;11.30;1.00;;;;;;5032209;28;20272;-67
2022/05/29 01:36:46;;;;;;;6.87;2.07;;;11.30;1.00;;;;;;5015647;28;20260;-67
2022/05/29 01:39:22;;;;;;;8.00;2.50;;;11.20;1.00;;;;;;5015280;28;20276;-68
2022/05/29 01:41:57;;;;;;;6.43;2.00;;;11.20;1.00;;;;;;5031938;28;20184;-68
2022/05/29 01:44:36;;;;;;;7.37;2.60;;;11.10;1.00;;;;;;5031489;28;20696;-66
2022/05/29 01:47:11;;;;;;;8.93;2.10;;;11.00;1.00;;;;;;5031914;28;20321;-66
2022/05/29 01:49:44;;;;;;;4.93;2.60;;;10.90;1.00;;;;;;5031706;28;20181;-68
2022/05/29 01:52:14;;;;;;;6.33;2.53;;;11.00;1.00;;;;;;5031951;28;20264;-67
2022/05/29 01:54:55;;;;;;;4.33;2.33;;;10.90;1.00;;;;;;5031719;28;20182;-67
2022/05/29 01:57:32;;;;;;;5.83;2.70;;;10.90;1.00;;;;;;5031489;28;20185;-68
2022/05/29 02:00:08;;;;;;;4.63;2.37;;;10.80;1.00;;;;;;5031273;28;20287;-67
2022/05/29 02:02:38;;;;;;;6.67;2.53;;;10.80;1.00;;;;;;5031504;28;20213;-68
2022/05/29 02:05:09;;;;;;;6.47;2.83;;;10.90;1.00;;;;;;5031302;28;20294;-68
2022/05/29 02:07:50;;;;;;;5.20;2.40;;;10.90;1.00;;;;;;5031421;28;20174;-68
2022/05/29 02:10:21;;;;;;;5.57;2.20;;;11.00;1.00;;;;;;5041401;28;20181;-68
2022/05/29 02:13:16;;;;;;;5.77;2.23;;;11.00;1.00;;;;;;5053514;28;20180;-68
2022/05/29 02:15:46;;;;;;;6.70;2.13;;;11.00;1.00;;;;;;5011587;28;20179;-67
2022/05/29 02:18:29;;;;;;;3.50;2.20;;;11.10;1.00;;;;;;5011052;28;20576;-67
2022/05/29 02:21:01;;;;;;;4.53;2.17;;;11.10;1.00;;;;;;5011519;28;20225;-68
2022/05/29 02:23:41;;;;;;;2.90;1.90;;;11.10;1.00;;;;;;5011560;28;20308;-68
2022/05/29 02:26:11;;;;;;;5.37;1.97;;;11.20;1.00;;;;;;5011301;28;20261;-67
2022/05/29 02:28:41;;;;;;;5.13;1.90;;;11.20;1.00;;;;;;5011075;28;20179;-68
2022/05/29 02:31:27;;;;;;;5.23;1.80;;;11.10;1.00;;;;;;5011663;28;20175;-67
2022/05/29 02:33:58;;;;;;;9.97;2.47;;;11.00;1.00;;;;;;5011590;28;20233;-67
2022/05/29 02:36:41;;;;;;;2.97;1.90;;;10.90;4.60;;;;;;5011346;28;20171;-67
2022/05/29 02:39:09;;;;;;;3.50;1.80;;;10.70;17.10;;;;;;5011162;28;20685;-68
2022/05/29 02:41:46;;;;;;;2.73;1.67;;;10.60;25.00;;;;;;5011472;28;20642;-67
2022/05/29 02:44:37;;;;;;;2.90;1.70;;;10.50;30.00;;;;;;5010955;28;20186;-68
2022/05/29 02:47:06;;;;;;;2.73;2.00;;;10.50;39.50;;;;;;5011412;28;20183;-68
2022/05/29 02:49:37;;;;;;;3.80;1.60;;;10.40;41.00;;;;;;5011326;28;20198;-67
2022/05/29 02:52:13;;;;;;;3.23;1.80;;;10.40;30.20;;;;;;5021273;28;20181;-68
2022/05/29 02:54:39;;;;;;;6.67;2.37;;;10.40;27.40;;;;;;5052989;28;20161;-67
2022/05/29 02:57:06;;;;;;;5.07;2.07;;;10.40;27.10;;;;;;5052463;28;20604;-68
2022/05/29 02:59:45;;;;;;;4.03;2.10;;;10.40;27.20;;;;;;5052828;28;20201;-68
2022/05/29 03:02:28;;;;;;;3.03;2.27;;;10.40;30.00;;;;;;5052985;28;20258;-68
2022/05/29 03:05:12;;;;;;;4.67;2.27;;;10.40;38.40;;;;;;5052410;28;20220;-68
2022/05/29 03:08:10;;;;;;;2.30;2.10;;;10.40;44.70;;;;;;5052661;28;20180;-68
2022/05/29 03:10:40;;;;;;;4.93;2.40;;;10.40;42.70;;;;;;5052902;28;20161;-68
2022/05/29 03:13:53;;;;;;;5.03;2.40;;;10.50;40.30;;;;;;5052888;28;20173;-68
2022/05/29 03:16:31;;;;;;;5.23;2.70;;;10.60;43.40;;;;;;5030575;28;20289;-67
2022/05/29 03:19:12;;;;;;;4.10;2.40;;;10.60;41.60;;;;;;5030678;28;20265;-67
2022/05/29 03:21:53;;;;;;;3.40;3.00;;;10.70;40.50;;;;;;5014024;28;20166;-68
2022/05/29 03:24:38;;;;;;;4.23;2.40;;;10.80;35.30;;;;;;5030376;28;20185;-67
2022/05/29 03:27:12;;;;;;;3.20;2.47;;;10.80;24.00;;;;;;5030274;28;20217;-68
2022/05/29 03:30:05;;;;;;;2.67;2.23;;;10.90;24.70;;;;;;5030625;28;20169;-68
2022/05/29 03:32:31;;;;;;;2.33;2.13;;;10.90;15.60;;;;;;5034085;28;20653;-67
2022/05/29 03:34:57;;;;;;;2.13;1.93;;;11.00;13.50;;;;;;5034360;28;20170;-67
2022/05/29 03:37:22;;;;;;;5.60;2.30;;;11.00;16.80;;;;;;5033960;28;20701;-66
2022/05/29 03:39:48;;;;;;;3.10;1.87;;;11.10;17.10;;;;;;5033781;28;20257;-67
2022/05/29 03:42:14;;;;;;;4.13;2.57;;;11.10;19.10;;;;;;5034016;28;20210;-68
2022/05/29 03:44:40;;;;;;;4.47;2.00;;;11.00;13.80;;;;;;5033873;28;20176;-67
2022/05/29 03:47:06;;;;;;;4.23;1.80;;;11.00;6.90;;;;;;5033739;28;20689;-67
2022/05/29 03:49:32;;;;;;;3.60;1.60;;;11.00;2.20;;;;;;5033812;28;20178;-67
2022/05/29 03:51:57;;;;;;;2.60;1.60;;;11.00;1.00;;;;;;5040800;28;20188;-67
2022/05/29 03:54:23;;;;;;;3.53;1.70;;;11.10;1.00;;;;;;5055840;28;20174;-67
2022/05/29 03:56:49;;;;;;;1.83;1.70;;;11.10;1.00;;;;;;5055908;28;20232;-68
2022/05/29 03:59:15;;;;;;;3.40;1.90;;;11.30;1.00;;;;;;5055857;28;20633;-67
2022/05/29 04:01:41;;;;;;;5.17;1.93;;;11.40;1.00;;;;;;5055316;28;20185;-67
2022/05/29 04:04:07;;;;;;;2.83;1.77;;;11.50;1.00;;;;;;5055342;28;20246;-66
2022/05/29 04:06:34;;;;;;;4.90;1.90;;;12.00;1.00;;;;;;5055649;28;20173;-67
2022/05/29 04:12:04;;;;;;;2.63;1.50;;;13.00;1.00;;;;;;5055844;28;20180;-67
2022/05/29 04:14:48;;;;;;;2.47;1.70;;;13.60;1.00;;;;;;5055310;28;20196;-67
2022/05/29 04:17:18;;;;;;;3.80;1.80;;;14.40;1.00;;;;;;5055441;28;20211;-67
2022/05/29 04:19:44;;;;;;;3.37;1.90;;;15.30;1.00;;;;;;5055227;28;20645;-67
2022/05/29 04:22:14;;;;;;;1.87;1.60;;;16.30;31.30;;;;;;5054991;28;20209;-68
2022/05/29 04:24:39;;;;;;;1.90;1.60;;;17.10;68.70;;;;;;5054754;28;20177;-68
2022/05/29 04:27:09;;;;;;;3.77;1.50;;;18.00;99.90;;;;;;5055044;28;20651;-68
2022/05/29 04:29:34;;;;;;;4.90;1.80;;;18.70;1.00;;;;;;5055242;28;20181;-68
2022/05/29 04:34:45;;;;;;;2.87;1.60;;;19.80;1.00;;;;;;5055505;28;20542;-67
2022/05/29 04:37:10;;;;;;;2.87;1.30;;;20.20;1.00;;;;;;5054869;28;20174;-67
2022/05/29 04:39:36;;;;;;;3.85;1.70;;;20.30;1.00;;;;;;5053444;28;20188;-69
2022/05/29 04:42:05;;;;;;;4.28;1.58;;;20.40;1.00;;;;;;5053978;28;20231;-67
2022/05/29 04:44:32;;;;;;;3.78;1.42;;;20.70;99.90;;;;;;5054714;28;20181;-67
2022/05/29 04:47:01;;;;;;;2.63;1.60;;;20.90;99.90;;;;;;5054741;28;20165;-68
2022/05/29 04:49:27;;;;;;;3.78;1.40;;;21.40;99.90;;;;;;5054603;28;20185;-68
2022/05/29 04:51:53;;;;;;;2.60;1.17;;;22.20;99.90;;;;;;5054695;28;20175;-67
2022/05/29 04:54:19;;;;;;;2.13;1.38;;;23.30;99.90;;;;;;5054116;28;20165;-68
2022/05/29 04:56:48;;;;;;;2.70;1.40;;;24.00;99.90;;;;;;5054544;28;20586;-68
2022/05/29 04:59:14;;;;;;;2.08;1.20;;;24.50;99.90;;;;;;5054347;28;20181;-69
2022/05/29 05:01:40;;;;;;;4.00;1.35;;;24.90;99.90;;;;;;5054822;28;20741;-69
2022/05/29 05:04:06;;;;;;;2.10;1.13;;;25.40;99.90;;;;;;5054298;28;20233;-69
2022/05/29 05:06:32;;;;;;;1.27;1.00;;;25.60;99.90;;;;;;5054327;28;20197;-69
2022/05/29 05:08:57;;;;;;;2.13;1.27;;;26.30;99.90;;;;;;5053773;28;20176;-68
2022/05/29 05:11:23;;;;;;;2.92;1.33;;;26.60;99.90;;;;;;5054152;28;20180;-68
2022/05/29 05:13:50;;;;;;;3.03;1.23;;;26.80;99.90;;;;;;5054274;28;20200;-68
2022/05/29 05:16:15;;;;;;;2.20;0.98;;;27.10;99.90;;;;;;5054297;28;20168;-68
2022/05/29 05:18:41;;;;;;;1.58;1.02;;;27.40;99.90;;;;;;5054323;28;20177;-68
2022/05/29 05:21:07;;;;;;;2.55;1.23;;;27.40;99.90;;;;;;5054005;28;20165;-68
2022/05/29 05:23:34;;;;;;;1.42;1.00;;;27.40;99.40;;;;;;5053769;28;20220;-68
2022/05/29 05:26:00;;;;;;;4.30;1.45;;;27.50;98.70;;;;;;5054143;28;20177;-67
2022/05/29 05:28:26;;;;;;;1.98;1.40;;;27.40;96.80;;;;;;5054260;28;20659;-68
2022/05/29 05:30:51;;;;;;;2.40;1.30;;;27.70;96.40;;;;;;5053956;28;20231;-69
2022/05/29 05:33:17;;;;;;;4.72;1.27;;;28.30;92.90;;;;;;5053765;28;20177;-68
2022/05/29 05:35:42;;;;;;;3.20;1.60;;;28.20;89.10;;;;;;5054218;28;20180;-68
2022/05/29 05:38:08;;;;;;;3.00;1.33;;;28.60;82.90;;;;;;5053272;28;20212;-69
2022/05/29 05:40:34;;;;;;;2.72;1.52;;;28.60;77.40;;;;;;5053704;28;20169;-68
2022/05/29 05:42:59;;;;;;;2.78;1.50;;;28.90;75.20;;;;;;5053501;28;20212;-68
2022/05/29 05:45:25;;;;;;;1.92;1.15;;;29.30;70.00;;;;;;5053542;28;20172;-67
2022/05/29 05:47:51;;;;;;;1.60;1.20;;;29.30;61.90;;;;;;5053453;28;20173;-68
2022/05/29 05:50:16;;;;;;;3.63;1.30;;;29.70;61.70;;;;;;5053603;28;20176;-68
2022/05/29 05:52:42;;;;;;;1.92;1.20;;;30.10;55.50;;;;;;5053150;28;20185;-68
2022/05/29 05:55:11;;;;;;;2.03;1.17;;;29.80;55.30;;;;;;5053562;28;20199;-68
2022/05/29 05:57:38;;;;;;;2.40;1.55;;;29.90;50.70;;;;;;5053357;28;20173;-68
2022/05/29 06:00:10;;;;;;;3.35;1.70;;;29.40;49.30;;;;;;5053263;28;20185;-68
2022/05/29 06:02:36;;;;;;;2.10;1.33;;;28.40;52.70;;;;;;5053105;28;20213;-68
2022/05/29 06:05:02;;;;;;;4.22;1.35;;;28.60;51.50;;;;;;5052813;28;20636;-68
2022/05/29 06:07:28;;;;;;;3.20;1.25;;;29.10;51.30;;;;;;5053457;28;20172;-68
2022/05/29 06:09:53;;;;;;;3.28;1.58;;;29.10;48.30;;;;;;5053145;28;20526;-68
2022/05/29 06:12:21;;;;;;;4.68;2.08;;;29.50;45.10;;;;;;5053090;28;20188;-68
2022/05/29 06:14:47;;;;;;;2.92;1.60;;;29.40;43.20;;;;;;5051857;28;20165;-68
2022/05/29 06:17:13;;;;;;;2.05;1.40;;;29.50;41.50;;;;;;5053043;28;20166;-69
2022/05/29 06:19:39;;;;;;;2.20;1.50;;;30.40;38.80;;;;;;5051588;28;20193;-68
2022/05/29 06:22:07;;;;;;;4.65;1.52;;;30.60;34.70;;;;;;5053181;28;20588;-69
2022/05/29 06:24:33;;;;;;;2.92;1.70;;;30.80;33.30;;;;;;5053160;28;20204;-69
2022/05/29 06:26:59;;;;;;;2.88;1.75;;;31.30;29.90;;;;;;5051414;28;20177;-69
2022/05/29 06:29:26;;;;;;;3.65;1.58;;;31.90;27.60;;;;;;5052534;28;20179;-68
2022/05/29 06:31:53;;;;;;;4.13;1.85;;;31.90;43.50;;;;;;5052685;28;20187;-69
2022/05/29 06:34:20;;;;;;;1.95;1.75;;;31.50;23.50;;;;;;5052855;28;20184;-69
2022/05/29 06:36:46;;;;;;;3.05;1.77;;;31.70;23.80;;;;;;5052762;28;20168;-69
2022/05/29 06:39:12;;;;;;;3.83;1.60;;;31.50;22.10;;;;;;5052788;28;20173;-68
2022/05/29 06:41:39;;;;;;;2.85;1.52;;;32.10;20.20;;;;;;5053029;28;20204;-69
2022/05/29 06:44:05;;;;;;;3.42;1.83;;;31.40;20.00;;;;;;5052864;28;20197;-69
2022/05/29 06:46:31;;;;;;;3.97;1.88;;;31.90;20.50;;;;;;5052552;28;20227;-69
2022/05/29 06:48:57;;;;;;;4.60;1.30;;;32.40;16.40;;;;;;5052110;28;20169;-69
2022/05/29 06:51:23;;;;;;;5.80;1.90;;;32.70;13.30;;;;;;5052368;28;20169;-69
2022/05/29 06:53:50;;;;;;;4.10;1.80;;;32.50;11.00;;;;;;5052436;28;20231;-68
2022/05/29 06:56:16;;;;;;;3.92;1.92;;;32.50;11.90;;;;;;5052573;28;20177;-67
2022/05/29 06:58:42;;;;;;;3.40;1.95;;;32.80;11.40;;;;;;5050912;28;20192;-68
2022/05/29 07:09:24;;;;;;;2.20;1.67;;;26.40;20.90;;;;;;5056355;28;20179;-67
2022/05/29 07:11:53;;;;;;;4.95;1.63;;;25.10;28.40;;;;;;5056660;28;20192;-67
2022/05/29 07:14:19;;;;;;;4.72;1.75;;;24.40;34.80;;;;;;5055975;28;20204;-66
2022/05/29 07:16:45;;;;;;;3.45;1.90;;;24.10;28.00;;;;;;5056419;28;20621;-66
2022/05/29 07:19:13;;;;;;;5.25;1.58;;;23.80;38.50;;;;;;5055593;28;20226;-66
2022/05/29 07:21:40;;;;;;;5.78;1.60;;;23.30;42.10;;;;;;5056211;28;20280;-66
2022/05/29 07:24:06;;;;;;;4.57;1.80;;;22.80;49.00;;;;;;5055872;28;20680;-66
2022/05/29 07:26:32;;;;;;;3.53;1.83;;;22.00;58.70;;;;;;5056200;28;20223;-67
2022/05/29 07:28:58;;;;;;;3.55;1.70;;;21.00;85.30;;;;;;5055800;28;20201;-66
2022/05/29 07:31:23;;;;;;;4.90;1.70;;;20.20;99.90;;;;;;5056184;28;20193;-68
2022/05/29 07:33:49;;;;;;;3.10;1.65;;;19.40;99.90;;;;;;5056152;28;20169;-68
2022/05/29 07:36:17;;;;;;;5.82;2.20;;;19.10;99.90;;;;;;5055390;28;20666;-67
2022/05/29 07:38:43;;;;;;;8.90;2.15;;;18.70;99.90;;;;;;5055942;28;20204;-67
2022/05/29 07:43:54;;;;;;;3.30;1.60;;;18.50;99.90;;;;;;5055549;28;20231;-67
2022/05/29 07:46:20;;;;;;;7.03;1.87;;;18.10;1.00;;;;;;5055638;28;20174;-66
2022/05/29 07:48:45;;;;;;;4.83;1.83;;;17.90;1.00;;;;;;5055367;28;20223;-67
2022/05/29 07:51:11;;;;;;;5.37;2.17;;;17.60;1.00;;;;;;5055767;28;20177;-67
2022/05/29 07:53:37;;;;;;;3.43;1.80;;;17.80;13.70;;;;;;5055636;28;20256;-67
2022/05/29 07:56:04;;;;;;;4.38;1.67;;;18.60;1.00;;;;;;5055433;28;20264;-67
2022/05/29 07:58:29;;;;;;;4.60;1.85;;;20.40;1.00;;;;;;5055200;28;20185;-68
2022/05/29 08:00:55;;;;;;;6.07;2.30;;;21.10;99.90;;;;;;5054619;28;20200;-68
2022/05/29 08:03:22;;;;;;;4.90;2.00;;;20.50;99.90;;;;;;5054766;28;20213;-67
2022/05/29 08:05:48;;;;;;;4.20;2.20;;;19.90;1.00;;;;;;5054886;28;20228;-67
2022/05/29 08:08:14;;;;;;;6.85;2.70;;;19.50;1.00;;;;;;5054826;28;20173;-67
2022/05/29 08:10:41;;;;;;;5.85;2.65;;;18.80;1.00;;;;;;5055374;28;20260;-67
2022/05/29 08:13:08;;;;;;;5.28;2.22;;;18.30;3.60;;;;;;5055239;28;20200;-68
2022/05/29 08:15:35;;;;;;;4.65;1.90;;;18.20;99.90;;;;;;5055027;28;20173;-67
2022/05/29 08:18:01;;;;;;;5.67;1.60;;;18.10;99.90;;;;;;5053510;28;20169;-67
2022/05/29 08:20:27;;;;;;;2.78;1.60;;;17.90;1.00;;;;;;5054021;28;20184;-67
2022/05/29 08:22:53;;;;;;;3.33;1.80;;;17.90;1.00;;;;;;5055069;28;20263;-67
2022/05/29 08:31:07;;;;;;;2.60;1.90;;;16.90;1.00;;;;;;4993655;28;20225;-68
2022/05/29 08:33:35;;;;;;;2.20;1.70;;;16.80;1.00;;;;;;4993491;28;20282;-67
2022/05/29 08:36:03;;;;;;;4.23;1.73;;;17.00;1.00;;;;;;4993602;28;20191;-66
2022/05/29 08:38:30;;;;;;;3.13;1.83;;;17.40;1.00;;;;;;4993478;28;20278;-68
2022/05/29 08:41:04;;;;;;;2.20;1.97;;;17.70;1.00;;;;;;4992954;28;20227;-66
2022/05/29 08:43:32;;;;;;;3.00;1.60;;;18.30;99.90;;;;;;4993188;28;20207;-68
2022/05/29 08:46:04;;;;;;;3.95;1.42;;;18.60;99.90;;;;;;4992631;28;20179;-67
2022/05/29 08:48:30;;;;;;;2.33;1.88;;;19.10;1.00;;;;;;4992935;28;20183;-68
2022/05/29 08:51:16;;;;;;;3.35;1.60;;;20.20;1.00;;;;;;4993022;28;20650;-68
2022/05/29 08:53:59;;;;;;;2.47;1.65;;;20.50;99.90;;;;;;4993154;28;20183;-69
2022/05/29 08:56:35;;;;;;;2.88;1.30;;;22.10;99.90;;;;;;4992638;28;20179;-69
2022/05/29 08:59:05;;;;;;;2.08;1.40;;;23.10;99.90;;;;;;5020211;28;20185;-69
2022/05/29 09:01:36;;;;;;;1.25;1.00;;;23.70;99.90;;;;;;5054325;28;20259;-68
2022/05/29 09:04:34;;;;;;;1.40;1.30;;;23.10;99.90;;;;;;5053991;28;20217;-69
2022/05/29 09:07:04;;;;;;;1.35;1.13;;;22.50;99.90;;;;;;5031653;28;20324;-69
2022/05/29 09:09:35;;;;;;;2.47;1.23;;;22.70;99.90;;;;;;5032243;28;20177;-69
2022/05/29 09:12:10;;;;;;;5.07;1.10;;;23.50;99.90;;;;;;5032185;28;20665;-67
2022/05/29 09:15:07;;;;;;;2.03;1.30;;;23.10;99.90;;;;;;5031686;28;20173;-67
2022/05/29 09:17:42;;;;;;;1.13;1.10;;;22.80;99.90;;;;;;5032161;28;20178;-67
2022/05/29 09:20:19;;;;;;;1.10;1.10;;;22.40;99.90;;;;;;5031606;28;20170;-68
2022/05/29 09:22:44;;;;;;;1.08;0.93;;;22.70;99.90;;;;;;5031610;28;20217;-68
2022/05/29 09:25:26;;;;;;;1.30;1.10;;;23.70;99.90;;;;;;5031800;28;20181;-68
2022/05/29 09:27:52;;;;;;;1.17;1.08;;;24.90;99.90;;;;;;5031190;28;20170;-70
2022/05/29 09:30:18;;;;;;;1.50;1.30;;;26.70;99.90;;;;;;5030666;28;20190;-70
2022/05/29 09:32:56;;;;;;;2.28;1.35;;;27.20;99.90;;;;;;5031475;28;20289;-69
2022/05/29 09:35:35;;;;;;;2.10;1.60;;;27.40;96.50;;;;;;5031710;28;20181;-68
2022/05/29 09:38:19;;;;;;;1.58;1.00;;;26.70;91.20;;;;;;5031588;28;20375;-68
2022/05/29 09:41:04;;;;;;;3.53;1.67;;;24.50;91.50;;;;;;5031507;28;20227;-66
2022/05/29 09:43:30;;;;;;;1.77;1.20;;;23.50;99.90;;;;;;5042922;28;20635;-66
2022/05/29 09:46:15;;;;;;;1.45;1.35;;;22.10;99.90;;;;;;5053218;28;20265;-67
2022/05/29 09:51:41;;;;;;;1.17;1.13;;;20.50;99.90;;;;;;5011853;28;20572;-68
2022/05/29 09:54:17;;;;;;;2.15;1.02;;;19.60;99.90;;;;;;5011242;28;20618;-66
2022/05/29 09:56:43;;;;;;;2.50;1.30;;;18.90;99.90;;;;;;5010697;28;20178;-67
2022/05/29 09:59:15;;;;;;;0.98;0.98;;;18.60;99.90;;;;;;5010436;28;20182;-68
2022/05/29 10:01:45;;;;;;;2.17;1.13;;;17.90;1.00;;;;;;5010826;28;20186;-68
2022/05/29 10:04:21;;;;;;;2.33;1.40;;;17.40;99.90;;;;;;5010205;28;20214;-67
2022/05/29 10:06:53;;;;;;;2.37;2.03;;;17.20;99.90;;;;;;5011207;28;20166;-67
2022/05/29 10:09:23;;;;;;;1.93;1.40;;;16.70;1.00;;;;;;5010413;28;20190;-67
2022/05/29 10:11:56;;;;;;;1.80;1.70;;;16.90;62.70;;;;;;5011266;28;20198;-67
2022/05/29 10:14:33;;;;;;;4.53;3.00;;;16.20;1.00;;;;;;5011547;28;20179;-67
2022/05/29 10:16:58;;;;;;;5.93;2.27;;;15.70;99.90;;;;;;5010701;28;20596;-68
2022/05/29 10:19:31;;;;;;;3.03;1.90;;;15.40;1.00;;;;;;5011274;28;20214;-67
2022/05/29 10:21:58;;;;;;;1.50;1.40;;;15.30;1.00;;;;;;5010968;28;20248;-67
2022/05/29 10:24:36;;;;;;;3.33;2.83;;;15.40;1.00;;;;;;5011440;28;20186;-66
2022/05/29 10:27:03;;;;;;;4.40;3.53;;;15.50;99.90;;;;;;5019608;28;20186;-67
2022/05/29 10:29:33;;;;;;;3.07;2.53;;;15.60;1.00;;;;;;5032231;28;20177;-67
2022/05/29 10:32:03;;;;;;;1.97;1.70;;;15.80;1.00;;;;;;5033472;28;20231;-67
2022/05/29 10:34:36;;;;;;;2.00;1.40;;;15.70;1.00;;;;;;5032456;28;20184;-67
2022/05/29 10:37:25;;;;;;;2.50;2.30;;;15.90;1.00;;;;;;5031199;28;20185;-67
2022/05/29 10:39:51;;;;;;;1.70;1.30;;;15.90;1.00;;;;;;5031830;28;20174;-67
2022/05/29 10:42:44;;;;;;;3.40;1.77;;;15.70;1.00;;;;;;5031990;28;20667;-67
2022/05/29 10:45:46;;;;;;;2.80;2.10;;;15.80;1.00;;;;;;5032517;28;20625;-67
2022/05/29 10:48:24;;;;;;;7.40;5.20;;;16.30;1.00;;;;;;5031012;28;20195;-67
2022/05/29 10:51:18;;;;;;;5.73;4.47;;;16.40;1.00;;;;;;5032391;28;20169;-67
2022/05/29 10:54:00;;;;;;;4.27;3.87;;;16.60;99.90;;;;;;5031791;28;20193;-67
2022/05/29 10:57:13;;;;;;;3.40;3.10;;;16.80;99.90;;;;;;5032315;28;20219;-67
2022/05/29 11:00:03;;;;;;;2.40;2.20;;;17.00;1.00;;;;;;5010155;28;20252;-67
2022/05/29 11:05:58;;;;;;;3.53;3.23;;;17.30;12.30;;;;;;5009693;28;20268;-66
2022/05/29 11:09:07;;;;;;;5.70;4.97;;;17.40;1.00;;;;;;5010355;28;20198;-66
2022/05/29 11:12:16;;;;;;;7.17;6.47;;;17.60;1.00;;;;;;4951426;28;20180;-67
2022/05/29 11:15:08;;;;;;;3.13;2.93;;;18.10;1.00;;;;;;4858107;29;20274;-67
2022/05/29 11:18:05;;;;;;;2.70;2.50;;;18.30;1.00;;;;;;4857527;29;20188;-67
2022/05/29 11:20:41;;;;;;;1.70;1.60;;;18.30;1.00;;;;;;4858120;29;20243;-67
2022/05/29 11:23:22;;;;;;;3.27;1.20;;;18.40;99.90;;;;;;4857557;29;20219;-67
2022/05/29 11:26:04;;;;;;;2.80;1.88;;;18.70;1.00;;;;;;4857943;29;20671;-66
2022/05/29 11:28:48;;;;;;;1.92;1.40;;;18.90;1.00;;;;;;4857882;29;20640;-66
2022/05/29 11:31:19;;;;;;;2.85;1.85;;;18.90;1.00;;;;;;4858158;29;20180;-67
2022/05/29 11:34:12;;;;;;;2.92;2.45;;;19.40;1.00;;;;;;4857868;29;20180;-68
2022/05/29 11:36:43;;;;;;;2.58;2.35;;;19.50;99.90;;;;;;4885092;29;20187;-68
2022/05/29 11:39:31;;;;;;;3.45;1.95;;;19.70;1.00;;;;;;4894435;29;20183;-67
2022/05/29 11:42:07;;;;;;;2.53;1.40;;;19.70;1.00;;;;;;4895428;29;20274;-67
2022/05/29 11:44:54;;;;;;;2.20;1.40;;;19.60;1.00;;;;;;4894795;29;20265;-67
2022/05/29 11:53:23;;;;;;;1.55;1.30;;;20.80;1.00;;;;;;5035129;28;20236;-67
2022/05/29 11:55:50;;;;;;;1.40;1.30;;;20.80;99.90;;;;;;5035981;28;20178;-67
2022/05/29 11:58:32;;;;;;;2.72;1.90;;;21.20;99.90;;;;;;5035006;28;20169;-68
2022/05/29 12:01:23;;;;;;;1.85;1.70;;;20.90;99.90;;;;;;5035078;28;20216;-68
2022/05/29 12:03:59;;;;;;;3.17;1.65;;;19.70;1.00;;;;;;5032925;28;20222;-67
2022/05/29 12:06:33;;;;;;;2.42;1.58;;;18.80;99.90;;;;;;5053467;28;20680;-67
2022/05/29 12:09:46;;;;;;;2.05;1.55;;;17.80;99.90;;;;;;5054885;28;20185;-68
2022/05/29 12:12:19;;;;;;;2.57;1.87;;;17.20;1.00;;;;;;5032936;28;20668;-68
2022/05/29 12:14:52;;;;;;;2.03;1.50;;;16.40;1.00;;;;;;5033223;28;20170;-69
2022/05/29 12:17:28;;;;;;;3.23;1.67;;;15.80;1.00;;;;;;5033575;28;20193;-67
2022/05/29 12:20:34;;;;;;;2.80;2.00;;;15.60;1.00;;;;;;5032740;28;20170;-68
2022/05/29 12:23:05;;;;;;;1.93;1.63;;;15.40;1.00;;;;;;5030757;28;20308;-67
2022/05/29 12:25:48;;;;;;;2.73;1.53;;;15.20;1.00;;;;;;5032987;28;20252;-68
2022/05/29 12:28:23;;;;;;;1.77;1.30;;;15.10;1.00;;;;;;5033035;28;20269;-67
2022/05/29 12:30:50;;;;;;;2.83;1.67;;;15.00;1.00;;;;;;5032118;28;20181;-67
2022/05/29 12:33:18;;;;;;;2.67;1.90;;;15.10;1.00;;;;;;5032519;28;20178;-67
2022/05/29 12:36:11;;;;;;;3.37;2.20;;;15.20;1.00;;;;;;5032483;28;20228;-67
2022/05/29 12:38:51;;;;;;;3.17;2.57;;;15.80;1.00;;;;;;5032410;28;20213;-67
2022/05/29 12:41:23;;;;;;;4.23;2.77;;;16.30;1.00;;;;;;5031894;28;20166;-68
2022/05/29 12:44:26;;;;;;;8.17;6.27;;;16.70;1.00;;;;;;5015818;28;20286;-66
2022/05/29 12:47:15;;;;;;;4.90;3.00;;;17.10;1.00;;;;;;5032554;28;20649;-66
2022/05/29 12:49:59;;;;;;;6.07;3.60;;;17.50;1.00;;;;;;5049163;28;20224;-67
2022/05/29 12:53:04;;;;;;;2.40;2.20;;;17.70;99.90;;;;;;5054485;28;20199;-67
2022/05/29 12:55:36;;;;;;;3.50;1.80;;;18.30;99.90;;;;;;5054773;28;20640;-67
2022/05/29 12:58:38;;;;;;;2.25;1.80;;;18.80;1.00;;;;;;5053787;28;20647;-68
2022/05/29 13:01:25;;;;;;;1.63;1.30;;;19.10;1.00;;;;;;5053630;28;20185;-67
2022/05/29 13:03:59;;;;;;;2.13;1.50;;;19.00;1.00;;;;;;5053256;28;20587;-67
2022/05/29 13:06:43;;;;;;;3.60;1.65;;;19.30;99.90;;;;;;5053746;28;20295;-68
2022/05/29 13:09:29;;;;;;;3.00;1.52;;;19.20;99.90;;;;;;5053867;28;20172;-68
2022/05/29 13:12:07;;;;;;;1.75;1.65;;;18.50;99.90;;;;;;5053861;28;20212;-67
2022/05/29 13:14:35;;;;;;;2.25;1.45;;;18.40;99.90;;;;;;5054075;28;20173;-68
2022/05/29 13:17:12;;;;;;;2.63;1.60;;;19.00;1.00;;;;;;5054132;28;20324;-68
2022/05/29 13:19:56;;;;;;;2.08;1.40;;;19.20;1.00;;;;;;5053657;28;20238;-67
2022/05/29 13:22:41;;;;;;;1.88;1.30;;;19.30;1.00;;;;;;5053740;28;20177;-67
2022/05/29 13:25:07;;;;;;;1.40;1.30;;;19.40;1.00;;;;;;5053779;28;20181;-68
2022/05/29 13:27:33;;;;;;;2.70;1.67;;;19.50;99.90;;;;;;5053504;28;20248;-68
2022/05/29 13:30:01;;;;;;;4.40;1.65;;;19.70;1.00;;;;;;5053543;28;20659;-68
2022/05/29 13:32:32;;;;;;;2.70;1.77;;;19.40;1.00;;;;;;5053150;28;20659;-67
2022/05/29 13:35:03;;;;;;;3.50;1.80;;;18.20;69.50;;;;;;5052200;28;20268;-67
2022/05/29 13:37:32;;;;;;;1.73;1.40;;;17.80;1.00;;;;;;5053691;28;20166;-67
2022/05/29 13:40:09;;;;;;;2.83;1.70;;;17.20;1.00;;;;;;5052910;28;20165;-67
2022/05/29 13:42:45;;;;;;;3.70;1.90;;;16.40;1.00;;;;;;5053237;28;20287;-67
2022/05/29 13:45:19;;;;;;;0.80;0.80;;;15.70;1.00;;;;;;5053301;28;20173;-66
2022/05/29 13:48:30;;;;;;;1.40;1.30;;;14.10;1.00;;;;;;5053477;28;20165;-67
2022/05/29 13:51:11;;;;;;;1.13;1.07;;;13.70;1.00;;;;;;5052649;28;20181;-67
2022/05/29 13:53:49;;;;;;;1.50;1.40;;;13.50;1.00;;;;;;5053077;28;20176;-67
2022/05/29 13:56:18;;;;;;;1.80;1.17;;;13.40;1.00;;;;;;5053171;28;20192;-66
2022/05/29 14:04:45;;;;;;;1.70;1.60;;;13.50;1.00;;;;;;5011066;28;20265;-67